sensor_id;sensor_type;location;lat;lon;timestamp;pressure;altitude;pressure_sealevel;temperature;humidity
26178;BME280;13924;47.670;10.310;2023-07-02T00:00:39;93720;;;15.9;100.0
26178;BME280;13924;47.670;10.310;2023-07-02T00:15:39;93760;;;15.8;100.0
26178;BME280;13924;47.670;10.310;2023-07-02T00:30:40;93740;;;15.8;100.0
26178;BME280;13924;47.670;10.310;2023-07-02T00:45:41;93710;;;15.7;100.0
26178;BME280;13924;47.670;10.310;2023-07-02T01:00:41;93720;;;15.9;100.0
26178;BME280;13924;47.670;10.310;2023-07-02T01:01:27;93720;;;15.9;100.0
26178;BME280;13924;47.670;10.310;2023-07-02T01:15:45;93730;;;15.7;100.0
26178;BME280;13924;47.670;10.310;2023-07-02T01:30:45;93730;;;16.0;100.0
26178;BME280;13924;47.670;10.310;2023-07-02T01:45:42;93740;;;15.5;100.0
26178;BME280;13924;47.670;10.310;2023-07-02T02:00:44;93750;;;16.0;100.0
26178;BME280;13924;47.670;10.310;2023-07-02T02:15:44;93770;;;15.9;100.0
26178;BME280;13924;47.670;10.310;2023-07-02T02:30:45;93640;;;16.0;100.0
26178;BME280;13924;47.670;10.310;2023-07-02T02:45:46;93640;;;15.4;100.0
26178;BME280;13924;47.670;10.310;2023-07-02T03:00:46;93750;;;15.5;100.0
26178;BME280;13924;47.670;10.310;2023-07-02T03:15:46;93760;;;15.3;100.0
26178;BME280;13924;47.670;10.310;2023-07-02T03:30:48;93760;;;15.1;100.0
26178;BME280;13924;47.670;10.310;2023-07-02T03:38:02;93760;;;15.0;100.0
26178;BME280;13924;47.670;10.310;2023-07-02T03:53:05;93760;;;15.0;100.0
26178;BME280;13924;47.670;10.310;2023-07-02T04:08:07;93760;;;15.0;100.0
26178;BME280;13924;47.670;10.310;2023-07-02T04:23:06;93800;;;14.8;100.0
26178;BME280;13924;47.670;10.310;2023-07-02T04:38:05;93810;;;15.1;100.0
26178;BME280;13924;47.670;10.310;2023-07-02T04:53:05;93820;;;15.1;100.0
26178;BME280;13924;47.670;10.310;2023-07-02T05:08:06;93850;;;15.1;100.0
26178;BME280;13924;47.670;10.310;2023-07-02T05:23:06;93840;;;15.1;100.0
26178;BME280;13924;47.670;10.310;2023-07-02T05:38:07;93880;;;15.1;100.0
26178;BME280;13924;47.670;10.310;2023-07-02T05:53:10;93850;;;15.1;100.0
26178;BME280;13924;47.670;10.310;2023-07-02T06:08:09;93840;;;15.2;100.0
26178;BME280;13924;47.670;10.310;2023-07-02T06:23:09;93900;;;15.0;100.0
26178;BME280;13924;47.670;10.310;2023-07-02T06:38:12;93840;;;15.1;100.0
26178;BME280;13924;47.670;10.310;2023-07-02T06:53:14;93830;;;15.1;100.0
26178;BME280;13924;47.670;10.310;2023-07-02T07:08:12;93820;;;15.1;100.0
26178;BME280;13924;47.670;10.310;2023-07-02T07:23:12;93850;;;15.1;100.0
26178;BME280;13924;47.670;10.310;2023-07-02T07:38:14;93770;;;15.2;100.0
26178;BME280;13924;47.670;10.310;2023-07-02T07:53:14;93740;;;15.3;100.0
26178;BME280;13924;47.670;10.310;2023-07-02T08:08:15;93640;;;15.4;100.0
26178;BME280;13924;47.670;10.310;2023-07-02T08:23:16;93560;;;15.4;100.0
26178;BME280;13924;47.670;10.310;2023-07-02T08:38:16;93540;;;15.3;100.0
26178;BME280;13924;47.670;10.310;2023-07-02T08:53:17;93660;;;15.3;100.0
26178;BME280;13924;47.670;10.310;2023-07-02T09:08:24;93660;;;15.3;100.0
26178;BME280;13924;47.670;10.310;2023-07-02T09:23:17;93750;;;15.1;100.0
26178;BME280;13924;47.670;10.310;2023-07-02T09:38:19;93810;;;14.8;100.0
26178;BME280;13924;47.670;10.310;2023-07-02T09:53:22;93810;;;14.8;100.0
26178;BME280;13924;47.670;10.310;2023-07-02T10:08:28;93660;;;15.2;100.0
26178;BME280;13924;47.670;10.310;2023-07-02T10:23:38;93630;;;15.6;100.0
26178;BME280;13924;47.670;10.310;2023-07-02T10:39:02;93730;;;15.6;100.0
26178;BME280;13924;47.670;10.310;2023-07-02T10:53:30;93690;;;15.8;100.0
26178;BME280;13924;47.670;10.310;2023-07-02T11:08:35;93690;;;15.8;100.0
26178;BME280;13924;47.670;10.310;2023-07-02T11:23:27;93500;;;16.0;100.0
26178;BME280;13924;47.670;10.310;2023-07-02T11:38:26;93420;;;17.0;100.0
26178;BME280;13924;47.670;10.310;2023-07-02T11:53:29;93350;;;17.4;100.0
26178;BME280;13924;47.670;10.310;2023-07-02T12:08:25;93260;;;18.1;100.0
26178;BME280;13924;47.670;10.310;2023-07-02T12:23:28;93260;;;18.1;100.0
26178;BME280;13924;47.670;10.310;2023-07-02T12:38:32;93170;;;18.7;100.0
26178;BME280;13924;47.670;10.310;2023-07-02T12:53:31;93130;;;19.8;100.0
26178;BME280;13924;47.670;10.310;2023-07-02T13:08:30;93110;;;19.8;100.0
26178;BME280;13924;47.670;10.310;2023-07-02T13:23:35;93100;;;19.9;100.0
26178;BME280;13924;47.670;10.310;2023-07-02T13:38:30;93050;;;20.8;100.0
26178;BME280;13924;47.670;10.310;2023-07-02T13:53:30;93080;;;21.3;100.0
26178;BME280;13924;47.670;10.310;2023-07-02T14:08:34;93060;;;21.3;100.0
26178;BME280;13924;47.670;10.310;2023-07-02T14:23:44;93060;;;21.3;100.0
26178;BME280;13924;47.670;10.310;2023-07-02T14:38:37;93070;;;21.0;100.0
26178;BME280;13924;47.670;10.310;2023-07-02T14:53:33;93060;;;21.6;100.0
26178;BME280;13924;47.670;10.310;2023-07-02T15:08:55;93060;;;21.6;100.0
26178;BME280;13924;47.670;10.310;2023-07-02T15:23:35;93040;;;21.3;100.0
26178;BME280;13924;47.670;10.310;2023-07-02T15:38:42;93040;;;21.3;100.0
26178;BME280;13924;47.670;10.310;2023-07-02T15:53:58;93060;;;21.3;100.0
26178;BME280;13924;47.670;10.310;2023-07-02T16:08:36;93040;;;21.3;100.0
26178;BME280;13924;47.670;10.310;2023-07-02T16:23:36;93050;;;21.1;100.0
26178;BME280;13924;47.670;10.310;2023-07-02T16:38:38;93050;;;21.6;100.0
26178;BME280;13924;47.670;10.310;2023-07-02T16:53:38;93050;;;21.6;100.0
26178;BME280;13924;47.670;10.310;2023-07-02T17:08:40;93040;;;21.6;100.0
26178;BME280;13924;47.670;10.310;2023-07-02T17:23:40;93050;;;21.3;100.0
26178;BME280;13924;47.670;10.310;2023-07-02T17:38:47;93050;;;21.3;100.0
26178;BME280;13924;47.670;10.310;2023-07-02T17:53:41;93060;;;20.5;100.0
26178;BME280;13924;47.670;10.310;2023-07-02T18:08:43;93060;;;20.5;100.0
26178;BME280;13924;47.670;10.310;2023-07-02T18:23:46;93070;;;19.9;100.0
26178;BME280;13924;47.670;10.310;2023-07-02T18:38:55;93070;;;19.9;100.0
26178;BME280;13924;47.670;10.310;2023-07-02T19:08:57;93070;;;20.0;100.0
26178;BME280;13924;47.670;10.310;2023-07-02T19:23:52;93070;;;19.7;100.0
26178;BME280;13924;47.670;10.310;2023-07-02T19:38:57;93070;;;19.3;100.0
26178;BME280;13924;47.670;10.310;2023-07-02T19:53:55;93150;;;19.2;100.0
26178;BME280;13924;47.670;10.310;2023-07-02T20:08:58;93200;;;18.9;100.0
26178;BME280;13924;47.670;10.310;2023-07-02T20:24:02;93220;;;18.7;100.0
26178;BME280;13924;47.670;10.310;2023-07-02T20:39:06;93280;;;18.4;100.0
26178;BME280;13924;47.670;10.310;2023-07-02T20:54:04;93270;;;18.5;100.0
26178;BME280;13924;47.670;10.310;2023-07-02T21:08:54;93340;;;18.4;100.0
26178;BME280;13924;47.670;10.310;2023-07-02T21:23:50;93720;;;17.8;100.0
26178;BME280;13924;47.670;10.310;2023-07-02T21:38:52;93320;;;18.2;100.0
26178;BME280;13924;47.670;10.310;2023-07-02T21:53:53;93300;;;18.1;100.0
26178;BME280;13924;47.670;10.310;2023-07-02T22:00:57;93300;;;18.1;100.0
26178;BME280;13924;47.670;10.310;2023-07-02T22:15:40;93280;;;18.1;100.0
26178;BME280;13924;47.670;10.310;2023-07-02T22:30:43;93350;;;17.9;100.0
26178;BME280;13924;47.670;10.310;2023-07-02T22:45:37;93300;;;17.9;100.0
26178;BME280;13924;47.670;10.310;2023-07-02T23:00:39;93300;;;17.9;100.0
26178;BME280;13924;47.670;10.310;2023-07-02T23:15:39;93210;;;17.9;100.0
26178;BME280;13924;47.670;10.310;2023-07-02T23:30:38;93550;;;17.3;100.0
26178;BME280;13924;47.670;10.310;2023-07-02T23:45:48;93550;;;17.3;100.0
